createdAt,value
2023-01-30T00:01:49.184Z,25.43
2023-01-30T00:03:51.628Z,25.43
2023-01-30T00:05:54.035Z,25.60
2023-01-30T00:07:56.200Z,25.20
2023-01-30T00:09:58.797Z,24.97
2023-01-30T00:12:00.906Z,22.67
2023-01-30T00:14:03.099Z,22.80
2023-01-30T00:16:06.001Z,26.03
2023-01-30T00:18:08.371Z,28.83
2023-01-30T00:20:11.216Z,28.20
2023-01-30T00:22:13.359Z,25.27
2023-01-30T00:24:15.577Z,28.67
2023-01-30T00:26:17.896Z,25.23
2023-01-30T00:28:20.036Z,24.63
2023-01-30T00:30:22.222Z,21.40
2023-01-30T00:32:26.501Z,28.10
2023-01-30T00:34:28.671Z,24.40
2023-01-30T00:36:30.810Z,25.40
2023-01-30T00:38:34.507Z,21.90
2023-01-30T00:40:36.708Z,28.17
2023-01-30T00:42:57.589Z,22.97
2023-01-30T00:45:18.661Z,26.43
2023-01-30T00:47:21.547Z,22.50
2023-01-30T00:49:23.677Z,25.57
2023-01-30T00:51:25.924Z,29.57
2023-01-30T00:53:29.364Z,24.13
2023-01-30T00:55:31.586Z,24.53
2023-01-30T00:57:33.759Z,24.50
2023-01-30T00:59:35.868Z,25.20
2023-01-30T01:01:38.160Z,22.97
2023-01-30T01:03:40.357Z,23.30
2023-01-30T01:05:43.115Z,26.57
2023-01-30T01:07:45.234Z,26.13
2023-01-30T01:09:47.327Z,25.30
2023-01-30T01:11:49.418Z,25.77
2023-01-30T01:13:53.945Z,21.93
2023-01-30T01:15:56.067Z,26.30
2023-01-30T01:17:58.297Z,25.57
2023-01-30T01:20:01.867Z,22.53
2023-01-30T01:22:04.036Z,20.50
2023-01-30T01:24:06.731Z,27.47
2023-01-30T01:26:09.076Z,32.00
2023-01-30T01:28:11.223Z,24.30
2023-01-30T01:30:13.787Z,23.77
2023-01-30T01:32:15.964Z,26.93
2023-01-30T01:34:18.119Z,29.00
2023-01-30T01:36:49.961Z,28.90
2023-01-30T01:38:44.866Z,29.60
2023-01-30T01:41:02.289Z,21.73
2023-01-30T01:43:21.822Z,21.63
2023-01-30T01:45:25.092Z,21.47
2023-01-30T01:47:27.553Z,23.80
2023-01-30T01:49:33.101Z,19.60
2023-01-30T01:51:39.040Z,27.33
2023-01-30T01:53:46.717Z,22.97
2023-01-30T01:55:51.914Z,20.90
2023-01-30T01:57:58.205Z,22.40
2023-01-30T02:00:11.660Z,21.87
2023-01-30T02:02:17.460Z,20.30
2023-01-30T02:04:39.744Z,23.80
2023-01-30T02:06:42.312Z,22.73
2023-01-30T02:08:48.463Z,21.17
2023-01-30T02:11:10.213Z,18.43
2023-01-30T02:13:12.647Z,17.43
2023-01-30T02:15:15.454Z,18.97
2023-01-30T02:17:18.195Z,21.10
2023-01-30T02:19:35.171Z,20.70
2023-01-30T02:22:22.359Z,19.70
2023-01-30T02:24:30.134Z,15.87
2023-01-30T02:26:45.632Z,24.33
2023-01-30T02:28:59.530Z,21.70
2023-01-30T02:31:10.686Z,19.60
2023-01-30T02:33:41.319Z,19.60
2023-01-30T02:36:03.051Z,18.13
2023-01-30T02:38:36.656Z,21.47
2023-01-30T02:41:13.962Z,24.77
2023-01-30T02:43:46.939Z,18.67
2023-01-30T02:46:05.265Z,21.83
2023-01-30T02:48:10.503Z,17.40
2023-01-30T02:50:29.274Z,19.13
2023-01-30T02:52:32.056Z,22.53
2023-01-30T02:54:34.247Z,20.97
2023-01-30T02:56:48.464Z,20.70
2023-01-30T02:59:06.236Z,16.60
2023-01-30T03:01:21.088Z,21.30
2023-01-30T03:03:44.777Z,19.27
2023-01-30T03:06:09.786Z,19.37
2023-01-30T03:08:17.882Z,19.27
2023-01-30T03:10:44.110Z,22.07
2023-01-30T03:12:50.287Z,17.37
2023-01-30T03:14:59.680Z,22.97
2023-01-30T03:17:04.623Z,20.67
2023-01-30T03:19:11.487Z,19.87
2023-01-30T03:21:13.673Z,19.27
2023-01-30T03:23:15.886Z,24.80
2023-01-30T03:25:21.025Z,20.13
2023-01-30T03:27:23.905Z,18.87
2023-01-30T03:29:26.083Z,23.83
2023-01-30T03:31:28.460Z,20.90
2023-01-30T03:33:31.528Z,18.60
2023-01-30T03:35:34.303Z,24.17
2023-01-30T03:37:37.709Z,22.90
2023-01-30T03:39:39.963Z,26.33
2023-01-30T03:41:42.573Z,24.67
2023-01-30T03:43:44.808Z,21.30
2023-01-30T03:45:47.045Z,20.43
2023-01-30T03:47:49.386Z,17.90
2023-01-30T03:49:52.396Z,22.30
2023-01-30T03:51:54.746Z,20.40
2023-01-30T03:53:56.880Z,24.10
2023-01-30T03:55:59.035Z,22.00
2023-01-30T03:58:06.275Z,24.40
2023-01-30T04:00:10.020Z,24.30
2023-01-30T04:02:26.303Z,22.87
2023-01-30T04:04:29.377Z,18.20
2023-01-30T04:06:33.182Z,21.83
2023-01-30T04:08:35.911Z,27.10
2023-01-30T04:10:39.289Z,32.63
2023-01-30T04:12:42.879Z,25.37
2023-01-30T04:14:46.041Z,27.60
2023-01-30T04:16:57.260Z,25.17
2023-01-30T04:19:22.054Z,22.50
2023-01-30T04:21:24.322Z,26.20
2023-01-30T04:23:26.566Z,28.23
2023-01-30T04:25:28.843Z,32.47
2023-01-30T04:27:31.532Z,24.10
2023-01-30T04:29:56.023Z,28.33
2023-01-30T04:31:58.257Z,25.90
2023-01-30T04:34:04.596Z,26.53
2023-01-30T04:36:08.556Z,25.23
2023-01-30T04:38:10.839Z,24.87
2023-01-30T04:40:13.249Z,32.13
2023-01-30T04:42:15.516Z,31.47
2023-01-30T04:44:29.687Z,31.53
2023-01-30T04:46:48.043Z,28.63
2023-01-30T04:48:51.084Z,25.07
2023-01-30T04:50:55.133Z,24.60
2023-01-30T04:52:57.323Z,28.07
2023-01-30T04:54:59.520Z,29.27
2023-01-30T04:57:01.607Z,31.43
2023-01-30T04:59:04.310Z,27.47
2023-01-30T05:01:32.888Z,29.40
2023-01-30T05:03:35.084Z,25.20
2023-01-30T05:05:37.259Z,27.07
2023-01-30T05:07:44.117Z,26.80
2023-01-30T05:09:46.243Z,27.13
2023-01-30T05:11:48.426Z,28.07
2023-01-30T05:13:50.937Z,24.87
2023-01-30T05:15:53.099Z,31.53
2023-01-30T05:17:55.224Z,29.53
2023-01-30T05:19:57.307Z,32.90
2023-01-30T05:21:59.514Z,30.23
2023-01-30T05:24:01.773Z,27.73
2023-01-30T05:26:04.565Z,22.70
2023-01-30T05:28:06.686Z,28.10
2023-01-30T05:30:09.441Z,34.87
2023-01-30T05:32:15.663Z,32.57
2023-01-30T05:34:17.788Z,28.40
2023-01-30T05:36:21.446Z,27.17
2023-01-30T05:38:24.172Z,31.80
2023-01-30T05:40:28.026Z,23.80
2023-01-30T05:42:30.282Z,25.33
2023-01-30T05:44:32.610Z,29.80
2023-01-30T05:46:34.967Z,28.10
2023-01-30T05:48:37.058Z,30.33
2023-01-30T05:50:39.166Z,29.80
2023-01-30T05:52:41.442Z,31.83
2023-01-30T05:54:43.587Z,26.67
2023-01-30T05:56:50.020Z,26.67
2023-01-30T05:58:56.481Z,30.63
2023-01-30T06:01:09.699Z,28.90
2023-01-30T06:03:11.830Z,30.20
2023-01-30T06:05:14.392Z,25.73
2023-01-30T06:07:16.582Z,27.90
2023-01-30T06:09:18.712Z,24.70
2023-01-30T06:11:20.892Z,27.67
2023-01-30T06:13:23.066Z,28.93
2023-01-30T06:15:25.266Z,25.77
2023-01-30T06:17:29.123Z,30.20
2023-01-30T06:19:32.255Z,29.90
2023-01-30T06:21:34.409Z,29.37
2023-01-30T06:23:36.637Z,26.00
2023-01-30T06:25:38.801Z,32.30
2023-01-30T06:27:41.073Z,24.70
2023-01-30T06:29:43.153Z,36.17
2023-01-30T06:31:45.373Z,24.53
2023-01-30T06:33:49.426Z,23.80
2023-01-30T06:35:52.622Z,27.40
2023-01-30T06:37:54.731Z,27.53
2023-01-30T06:39:56.791Z,24.50
2023-01-30T06:41:59.106Z,28.30
2023-01-30T06:44:01.266Z,29.80
2023-01-30T06:46:03.504Z,32.07
2023-01-30T06:48:06.004Z,22.63
2023-01-30T06:50:08.523Z,25.17
2023-01-30T06:52:10.644Z,30.37
2023-01-30T06:54:12.982Z,31.10
2023-01-30T06:56:15.195Z,27.80
2023-01-30T06:58:17.425Z,22.90
2023-01-30T07:00:20.545Z,27.97
2023-01-30T07:02:22.709Z,27.37
2023-01-30T07:04:24.949Z,22.23
2023-01-30T07:06:27.684Z,24.00
2023-01-30T07:08:29.855Z,24.40
2023-01-30T07:10:32.626Z,21.23
2023-01-30T07:12:34.835Z,23.23
2023-01-30T07:14:36.915Z,24.80
2023-01-30T07:16:39.115Z,21.60
2023-01-30T07:18:41.297Z,20.10
2023-01-30T07:20:47.250Z,25.47
2023-01-30T07:22:56.157Z,30.07
2023-01-30T07:24:58.302Z,18.07
2023-01-30T07:27:00.356Z,21.53
2023-01-30T07:29:02.352Z,23.97
2023-01-30T07:31:04.435Z,19.73
2023-01-30T07:33:06.925Z,22.73
2023-01-30T07:35:09.593Z,16.37
2023-01-30T07:37:11.758Z,19.77
2023-01-30T07:39:13.859Z,18.40
2023-01-30T07:41:16.020Z,18.40
2023-01-30T07:43:18.306Z,17.67
2023-01-30T07:45:20.460Z,22.17
2023-01-30T07:47:22.446Z,15.57
2023-01-30T07:49:24.605Z,17.80
2023-01-30T07:51:26.662Z,21.00
2023-01-30T07:53:28.692Z,17.47
2023-01-30T07:55:30.730Z,18.00
2023-01-30T07:57:32.857Z,16.07
2023-01-30T07:59:34.995Z,15.30
2023-01-30T08:01:37.097Z,16.67
2023-01-30T08:03:39.230Z,19.53
2023-01-30T08:05:41.337Z,17.87
2023-01-30T08:07:43.330Z,13.83
2023-01-30T08:09:45.321Z,15.73
2023-01-30T08:11:47.330Z,15.20
2023-01-30T08:13:49.451Z,12.60
2023-01-30T08:15:51.495Z,31.30
2023-01-30T08:17:56.911Z,27.13
2023-01-30T08:19:58.848Z,13.90
2023-01-30T08:22:00.904Z,16.30
2023-01-30T08:24:02.954Z,15.20
2023-01-30T08:26:06.221Z,14.73
2023-01-30T08:28:08.349Z,13.97
2023-01-30T08:30:12.302Z,11.93
2023-01-30T08:32:15.813Z,13.03
2023-01-30T08:34:17.881Z,13.17
2023-01-30T08:36:19.864Z,10.40
2023-01-30T08:38:21.788Z,13.53
2023-01-30T08:40:23.848Z,13.20
2023-01-30T08:42:25.868Z,14.60
2023-01-30T08:44:27.938Z,10.70
2023-01-30T08:46:30.068Z,12.07
2023-01-30T08:48:43.535Z,13.03
2023-01-30T08:50:55.556Z,12.53
2023-01-30T08:52:57.647Z,11.47
2023-01-30T08:54:59.639Z,10.03
2023-01-30T08:57:01.782Z,10.27
2023-01-30T08:59:03.902Z,31.83
2023-01-30T09:01:07.052Z,9.30
2023-01-30T09:03:09.055Z,20.03
2023-01-30T09:05:11.223Z,13.87
2023-01-30T09:07:13.161Z,13.07
2023-01-30T09:09:15.177Z,14.17
2023-01-30T09:11:17.629Z,10.00
2023-01-30T09:13:19.610Z,10.20
2023-01-30T09:15:21.609Z,14.20
2023-01-30T09:17:24.475Z,11.90
2023-01-30T09:19:27.683Z,8.60
2023-01-30T09:21:30.600Z,7.97
2023-01-30T09:23:32.728Z,7.27
2023-01-30T09:25:34.881Z,8.80
2023-01-30T09:27:37.138Z,6.63
2023-01-30T09:29:39.199Z,7.10
2023-01-30T09:31:41.546Z,5.40
2023-01-30T09:33:43.636Z,6.10
2023-01-30T09:35:49.410Z,6.67
2023-01-30T09:37:53.283Z,4.90
2023-01-30T09:39:55.319Z,5.97
2023-01-30T09:42:06.108Z,5.73
2023-01-30T09:44:18.790Z,5.37
2023-01-30T09:46:26.779Z,5.40
2023-01-30T09:49:19.932Z,4.47
2023-01-30T09:51:22.059Z,5.13
2023-01-30T09:53:25.913Z,6.30
2023-01-30T09:55:29.351Z,4.47
2023-01-30T09:57:31.309Z,6.93
2023-01-30T09:59:49.678Z,4.50
2023-01-30T10:02:22.049Z,4.63
2023-01-30T10:04:40.351Z,8.20
2023-01-30T10:06:59.679Z,8.27
2023-01-30T10:09:16.088Z,7.03
2023-01-30T10:11:49.019Z,7.87
2023-01-30T10:14:17.516Z,7.97
2023-01-30T10:16:29.463Z,6.03
2023-01-30T10:18:46.654Z,7.03
2023-01-30T10:21:28.094Z,11.70
2023-01-30T10:24:24.091Z,4.70
2023-01-30T10:26:27.322Z,6.80
2023-01-30T10:28:35.533Z,8.53
2023-01-30T10:30:38.020Z,4.60
2023-01-30T10:32:44.582Z,4.97
2023-01-30T10:34:50.996Z,3.90
2023-01-30T10:37:01.020Z,8.73
2023-01-30T10:39:04.508Z,3.80
2023-01-30T10:41:38.124Z,3.50
2023-01-30T10:43:43.327Z,4.43
2023-01-30T10:45:51.299Z,3.87
2023-01-30T10:48:28.709Z,5.60
2023-01-30T10:50:51.366Z,4.67
2023-01-30T10:53:02.651Z,5.60
2023-01-30T10:55:36.298Z,5.13
2023-01-30T10:57:44.803Z,5.93
2023-01-30T10:59:54.478Z,7.03
2023-01-30T11:02:24.444Z,4.23
2023-01-30T11:04:33.866Z,5.47
2023-01-30T11:06:35.873Z,5.10
2023-01-30T11:08:37.884Z,5.57
2023-01-30T11:10:39.895Z,6.63
2023-01-30T11:12:41.854Z,5.83
2023-01-30T11:15:04.658Z,32.80
2023-01-30T11:17:06.708Z,12.13
2023-01-30T11:19:24.185Z,3.77
2023-01-30T11:21:38.498Z,7.13
2023-01-30T11:23:45.903Z,7.53
2023-01-30T11:25:59.260Z,15.00
2023-01-30T11:28:07.684Z,10.03
2023-01-30T11:30:18.580Z,7.73
2023-01-30T11:32:26.983Z,9.90
2023-01-30T11:34:29.206Z,11.70
2023-01-30T11:36:35.039Z,10.60
2023-01-30T11:38:40.212Z,13.70
2023-01-30T11:40:42.411Z,5.83
2023-01-30T11:42:46.767Z,7.33
2023-01-30T11:45:06.456Z,9.00
2023-01-30T11:47:22.612Z,6.07
2023-01-30T11:49:45.108Z,9.10
2023-01-30T11:51:52.744Z,10.70
2023-01-30T11:54:01.307Z,10.57
2023-01-30T11:56:34.049Z,9.77
2023-01-30T11:58:39.175Z,5.67
2023-01-30T12:00:43.274Z,9.80
2023-01-30T12:02:48.062Z,6.17
2023-01-30T12:04:57.143Z,11.63
2023-01-30T12:07:21.926Z,18.20
2023-01-30T12:09:36.880Z,8.13
2023-01-30T12:11:42.216Z,19.20
2023-01-30T12:13:45.567Z,8.50
2023-01-30T12:15:52.878Z,7.20
2023-01-30T12:18:12.158Z,9.43
2023-01-30T12:20:24.693Z,11.13
2023-01-30T12:22:40.257Z,10.50
2023-01-30T12:24:51.287Z,16.30
2023-01-30T12:26:58.512Z,15.50
2023-01-30T12:29:15.574Z,11.43
2023-01-30T12:31:25.728Z,13.27
2023-01-30T12:33:30.576Z,7.97
2023-01-30T12:36:07.063Z,5.83
2023-01-30T12:38:30.961Z,12.63
2023-01-30T12:40:47.197Z,14.20
2023-01-30T12:43:11.095Z,10.13
2023-01-30T12:45:25.702Z,13.87
2023-01-30T12:47:36.958Z,6.53
2023-01-30T12:49:57.572Z,13.53
2023-01-30T12:52:23.124Z,10.23
2023-01-30T12:54:37.552Z,9.60
2023-01-30T12:56:49.395Z,13.83
2023-01-30T12:59:48.431Z,8.30
2023-01-30T13:01:58.495Z,8.60
2023-01-30T13:04:34.525Z,8.13
2023-01-30T13:07:02.072Z,10.20
2023-01-30T13:09:07.165Z,11.67
2023-01-30T13:11:20.811Z,17.53
2023-01-30T13:13:36.034Z,8.10
2023-01-30T13:15:40.972Z,7.30
2023-01-30T13:17:55.809Z,12.53
2023-01-30T13:20:05.846Z,14.63
2023-01-30T13:22:43.126Z,9.97
2023-01-30T13:24:47.894Z,5.40
2023-01-30T13:26:51.041Z,18.10
2023-01-30T13:28:58.261Z,13.30
2023-01-30T13:31:00.561Z,13.53
2023-01-30T13:33:12.041Z,9.33
2023-01-30T13:35:17.960Z,7.63
2023-01-30T13:37:20.639Z,8.03
2023-01-30T13:39:33.926Z,5.40
2023-01-30T13:41:39.697Z,4.70
2023-01-30T13:43:46.937Z,7.77
2023-01-30T13:45:52.609Z,6.53
2023-01-30T13:48:42.550Z,7.40
2023-01-30T13:51:09.525Z,10.27
2023-01-30T13:53:23.928Z,8.57
2023-01-30T13:55:34.958Z,12.10
2023-01-30T13:57:58.182Z,10.87
2023-01-30T14:00:22.855Z,11.97
2023-01-30T14:02:25.641Z,7.63
2023-01-30T14:04:30.376Z,9.63
2023-01-30T14:06:38.609Z,3.83
2023-01-30T14:08:46.718Z,14.00
2023-01-30T14:10:50.016Z,7.47
2023-01-30T14:12:55.776Z,17.17
2023-01-30T14:15:00.633Z,14.60
2023-01-30T14:17:14.509Z,8.40
2023-01-30T14:19:34.841Z,11.17
2023-01-30T14:21:38.511Z,6.10
2023-01-30T14:23:42.491Z,12.90
2023-01-30T14:25:47.636Z,8.70
2023-01-30T14:28:16.342Z,8.40
2023-01-30T14:30:55.956Z,8.13
2023-01-30T14:33:00.279Z,3.47
2023-01-30T14:35:17.046Z,6.43
2023-01-30T14:37:35.211Z,4.47
2023-01-30T14:39:39.844Z,7.83
2023-01-30T14:41:41.879Z,5.97
2023-01-30T14:43:43.812Z,3.70
2023-01-30T14:45:48.939Z,8.40
2023-01-30T14:48:29.278Z,4.07
2023-01-30T14:50:31.398Z,9.33
2023-01-30T14:52:41.362Z,7.30
2023-01-30T14:54:48.533Z,12.23
2023-01-30T14:57:08.128Z,8.27
2023-01-30T14:59:23.589Z,7.43
2023-01-30T15:01:25.994Z,6.00
2023-01-30T15:03:28.105Z,6.83
2023-01-30T15:05:41.609Z,8.07
2023-01-30T15:08:03.671Z,13.07
2023-01-30T15:10:10.972Z,9.23
2023-01-30T15:12:26.000Z,5.77
2023-01-30T15:14:55.905Z,9.60
2023-01-30T15:17:09.342Z,7.90
2023-01-30T15:19:21.072Z,13.37
2023-01-30T15:21:50.387Z,4.93
2023-01-30T15:23:54.023Z,6.60
2023-01-30T15:26:29.043Z,12.30
2023-01-30T15:28:47.017Z,6.07
2023-01-30T15:31:11.616Z,6.47
2023-01-30T15:33:29.891Z,10.83
2023-01-30T15:35:32.749Z,11.70
2023-01-30T15:37:37.617Z,23.53
2023-01-30T15:39:40.244Z,8.00
2023-01-30T15:41:43.263Z,15.00
2023-01-30T15:43:48.375Z,9.47
2023-01-30T15:46:06.898Z,7.27
2023-01-30T15:48:30.754Z,13.60
2023-01-30T15:50:32.786Z,6.43
2023-01-30T15:52:37.852Z,10.27
2023-01-30T15:54:39.932Z,11.03
2023-01-30T15:56:42.097Z,21.50
2023-01-30T15:58:44.409Z,8.40
2023-01-30T16:00:48.396Z,9.67
2023-01-30T16:02:50.545Z,15.17
2023-01-30T16:05:05.434Z,10.77
2023-01-30T16:07:26.673Z,11.13
2023-01-30T16:09:28.690Z,9.17
2023-01-30T16:11:43.094Z,12.47
2023-01-30T16:13:45.085Z,12.80
2023-01-30T16:15:56.138Z,11.20
2023-01-30T16:18:05.623Z,9.90
2023-01-30T16:20:13.070Z,8.83
2023-01-30T16:22:17.360Z,7.53
2023-01-30T16:24:25.495Z,12.57
2023-01-30T16:26:27.757Z,9.30
2023-01-30T16:28:31.203Z,7.23
2023-01-30T16:30:34.250Z,15.90
2023-01-30T16:32:36.683Z,11.60
2023-01-30T16:34:39.617Z,14.60
2023-01-30T16:36:41.710Z,16.97
2023-01-30T16:38:46.077Z,10.00
2023-01-30T16:40:48.044Z,8.97
2023-01-30T16:43:04.503Z,12.10
2023-01-30T16:45:12.378Z,15.93
2023-01-30T16:47:23.277Z,17.40
2023-01-30T16:49:37.261Z,17.00
2023-01-30T16:51:40.040Z,10.23
2023-01-30T16:53:51.982Z,5.20
2023-01-30T16:55:59.718Z,14.73
2023-01-30T16:58:03.443Z,11.30
2023-01-30T17:00:10.212Z,10.23
2023-01-30T17:02:25.105Z,15.40
2023-01-30T17:04:30.348Z,11.80
2023-01-30T17:06:37.012Z,12.90
2023-01-30T17:08:56.018Z,15.43
2023-01-30T17:10:59.326Z,6.87
2023-01-30T17:13:01.360Z,8.50
2023-01-30T17:15:26.434Z,14.83
2023-01-30T17:17:28.420Z,8.90
2023-01-30T17:19:30.689Z,13.23
2023-01-30T17:21:44.264Z,10.13
2023-01-30T17:23:52.386Z,9.13
2023-01-30T17:25:54.433Z,15.13
2023-01-30T17:27:56.901Z,9.20
2023-01-30T17:29:59.012Z,11.33
2023-01-30T17:32:01.321Z,8.73
2023-01-30T17:34:03.301Z,6.97
2023-01-30T17:36:07.198Z,7.63
2023-01-30T17:38:09.555Z,9.07
2023-01-30T17:40:17.386Z,8.33
2023-01-30T17:42:21.984Z,11.93
2023-01-30T17:44:24.663Z,15.83
2023-01-30T17:46:46.901Z,10.40
2023-01-30T17:48:48.970Z,10.40
2023-01-30T17:50:51.121Z,9.17
2023-01-30T17:52:53.282Z,15.00
2023-01-30T17:54:55.300Z,10.50
2023-01-30T17:57:02.357Z,8.83
2023-01-30T17:59:18.297Z,12.60
2023-01-30T18:01:20.381Z,12.73
2023-01-30T18:03:22.420Z,13.30
2023-01-30T18:05:24.501Z,14.43
2023-01-30T18:07:29.054Z,6.40
2023-01-30T18:09:31.834Z,12.40
2023-01-30T18:11:33.971Z,8.90
2023-01-30T18:13:36.546Z,16.43
2023-01-30T18:15:38.631Z,16.00
2023-01-30T18:17:46.060Z,10.57
2023-01-30T18:19:49.461Z,10.50
2023-01-30T18:21:51.549Z,13.60
2023-01-30T18:23:53.533Z,6.53
2023-01-30T18:25:55.539Z,11.37
2023-01-30T18:27:57.558Z,13.37
2023-01-30T18:29:59.488Z,19.40
2023-01-30T18:32:05.731Z,8.87
2023-01-30T18:34:07.967Z,21.90
2023-01-30T18:36:12.405Z,21.83
2023-01-30T18:38:14.356Z,13.63
2023-01-30T18:40:16.335Z,11.40
2023-01-30T18:42:18.445Z,12.83
2023-01-30T18:44:20.547Z,11.53
2023-01-30T18:46:22.662Z,8.07
2023-01-30T18:48:24.708Z,17.30
2023-01-30T18:50:26.683Z,14.93
2023-01-30T18:52:28.705Z,10.50
2023-01-30T18:54:30.672Z,19.20
2023-01-30T18:56:33.747Z,17.03
2023-01-30T18:58:36.130Z,16.57
2023-01-30T19:00:38.628Z,6.73
2023-01-30T19:02:40.891Z,12.40
2023-01-30T19:04:43.050Z,14.20
2023-01-30T19:06:45.219Z,11.80
2023-01-30T19:08:47.398Z,9.07
2023-01-30T19:10:49.907Z,15.60
2023-01-30T19:13:10.656Z,8.93
2023-01-30T19:15:12.876Z,22.00
2023-01-30T19:17:16.422Z,17.07
2023-01-30T19:19:18.682Z,11.30
2023-01-30T19:21:21.536Z,24.57
2023-01-30T19:23:27.230Z,14.13
2023-01-30T19:25:29.317Z,17.73
2023-01-30T19:27:31.459Z,15.17
2023-01-30T19:29:33.622Z,12.00
2023-01-30T19:31:35.861Z,25.43
2023-01-30T19:33:37.983Z,11.43
2023-01-30T19:35:42.362Z,12.10
2023-01-30T19:37:44.532Z,13.43
2023-01-30T19:39:46.840Z,19.13
2023-01-30T19:41:49.013Z,5.43
2023-01-30T19:43:52.123Z,8.27
2023-01-30T19:45:58.872Z,18.67
2023-01-30T19:48:01.005Z,15.67
2023-01-30T19:50:03.466Z,9.30
2023-01-30T19:52:05.576Z,12.10
2023-01-30T19:54:10.862Z,11.17
2023-01-30T19:56:13.824Z,12.77
2023-01-30T19:58:15.913Z,13.93
2023-01-30T20:00:18.827Z,13.77
2023-01-30T20:02:21.038Z,10.17
2023-01-30T20:04:23.171Z,10.30
2023-01-30T20:06:27.991Z,13.30
2023-01-30T20:08:32.792Z,5.43
2023-01-30T20:10:35.993Z,22.23
2023-01-30T20:12:38.183Z,9.20
2023-01-30T20:14:40.264Z,13.97
2023-01-30T20:16:42.460Z,10.77
2023-01-30T20:18:46.181Z,21.03
2023-01-30T20:20:48.339Z,8.67
2023-01-30T20:22:50.506Z,11.20
2023-01-30T20:24:52.657Z,8.33
2023-01-30T20:26:54.836Z,14.40
2023-01-30T20:28:57.542Z,14.57
2023-01-30T20:31:00.313Z,17.07
2023-01-30T20:33:02.509Z,11.00
2023-01-30T20:35:04.832Z,12.40
2023-01-30T20:37:06.998Z,15.97
2023-01-30T20:39:09.259Z,14.30
2023-01-30T20:41:16.406Z,14.23
2023-01-30T20:43:18.644Z,10.97
2023-01-30T20:45:20.834Z,14.10
2023-01-30T20:47:22.958Z,12.67
2023-01-30T20:49:25.115Z,11.33
2023-01-30T20:51:33.058Z,17.33
2023-01-30T20:53:35.949Z,11.33
2023-01-30T20:55:38.349Z,13.80
2023-01-30T20:57:43.112Z,10.90
2023-01-30T20:59:46.764Z,13.60
2023-01-30T21:01:48.910Z,20.43
2023-01-30T21:03:53.392Z,18.13
2023-01-30T21:05:57.258Z,20.77
2023-01-30T21:07:59.392Z,15.43
2023-01-30T21:10:01.517Z,13.50
2023-01-30T21:12:04.335Z,13.47
2023-01-30T21:14:07.436Z,11.73
2023-01-30T21:16:23.007Z,12.90
2023-01-30T21:18:25.143Z,10.23
2023-01-30T21:20:27.262Z,13.13
2023-01-30T21:22:29.391Z,14.20
2023-01-30T21:24:31.539Z,12.53
2023-01-30T21:26:35.099Z,8.47
2023-01-30T21:28:37.974Z,14.63
2023-01-30T21:30:42.071Z,6.70
2023-01-30T21:32:44.257Z,16.77
2023-01-30T21:34:46.367Z,16.63
2023-01-30T21:37:08.522Z,10.97
2023-01-30T21:39:32.223Z,12.43
2023-01-30T21:41:45.010Z,20.83
2023-01-30T21:43:50.224Z,9.50
2023-01-30T21:45:57.547Z,25.43
2023-01-30T21:47:59.664Z,13.80
2023-01-30T21:50:02.026Z,17.27
2023-01-30T21:52:04.386Z,15.60
2023-01-30T21:54:06.576Z,22.50
2023-01-30T21:56:08.823Z,18.43
2023-01-30T21:58:11.017Z,13.00
2023-01-30T22:00:13.835Z,15.13
2023-01-30T22:02:16.011Z,10.97
2023-01-30T22:04:19.526Z,20.57
2023-01-30T22:06:21.670Z,13.03
2023-01-30T22:08:23.794Z,12.30
2023-01-30T22:10:25.902Z,15.37
2023-01-30T22:12:28.505Z,14.93
2023-01-30T22:14:30.987Z,11.80
2023-01-30T22:16:33.785Z,15.60
2023-01-30T22:18:36.427Z,17.00
2023-01-30T22:20:38.614Z,8.30
2023-01-30T22:22:40.767Z,10.60
2023-01-30T22:24:43.089Z,15.90
2023-01-30T22:26:45.481Z,14.50
2023-01-30T22:28:48.195Z,10.70
2023-01-30T22:30:50.380Z,15.23
2023-01-30T22:32:55.055Z,14.93
2023-01-30T22:34:57.279Z,9.93
2023-01-30T22:36:59.494Z,25.10
2023-01-30T22:39:02.175Z,16.93
2023-01-30T22:41:11.155Z,23.37
2023-01-30T22:43:13.267Z,23.90
2023-01-30T22:45:15.352Z,17.93
2023-01-30T22:47:17.468Z,7.50
2023-01-30T22:49:19.600Z,19.80
2023-01-30T22:51:23.987Z,17.37
2023-01-30T22:53:26.080Z,11.30
2023-01-30T22:55:28.227Z,20.17
2023-01-30T22:57:30.399Z,17.27
2023-01-30T22:59:32.987Z,14.43
2023-01-30T23:01:39.875Z,18.40
2023-01-30T23:03:43.349Z,18.87
2023-01-30T23:05:45.434Z,16.73
2023-01-30T23:07:47.620Z,18.40
2023-01-30T23:09:49.826Z,13.37
2023-01-30T23:12:13.762Z,11.43
2023-01-30T23:14:18.031Z,14.17
2023-01-30T23:16:25.047Z,12.07
2023-01-30T23:18:46.355Z,9.93
2023-01-30T23:20:48.517Z,10.20
2023-01-30T23:22:51.361Z,9.83
2023-01-30T23:24:53.519Z,5.00
2023-01-30T23:26:55.605Z,6.73
2023-01-30T23:28:58.281Z,5.33
2023-01-30T23:31:15.638Z,4.00
2023-01-30T23:33:17.837Z,8.17
2023-01-30T23:35:20.385Z,5.57
2023-01-30T23:37:42.593Z,5.13
2023-01-30T23:39:45.398Z,3.60
2023-01-30T23:41:47.559Z,5.30
2023-01-30T23:43:50.726Z,9.80
2023-01-30T23:45:55.872Z,3.37
2023-01-30T23:47:58.150Z,10.27
2023-01-30T23:50:00.336Z,8.80
2023-01-30T23:52:02.420Z,8.53
2023-01-30T23:54:05.669Z,6.00
2023-01-30T23:56:08.361Z,9.93
2023-01-30T23:58:10.459Z,13.33
